sensor_id;sensor_type;location;lat;lon;timestamp;temperature;humidity
34698;DHT22;61391;50.922;6.928;2023-07-31T00:02:45;17.60;99.90
34698;DHT22;61391;50.922;6.928;2023-07-31T00:05:10;17.70;99.90
34698;DHT22;61391;50.922;6.928;2023-07-31T00:07:38;17.70;99.90
34698;DHT22;61391;50.922;6.928;2023-07-31T00:10:04;17.80;99.90
34698;DHT22;61391;50.922;6.928;2023-07-31T00:12:30;17.90;99.90
34698;DHT22;61391;50.922;6.928;2023-07-31T00:18:18;17.90;99.90
34698;DHT22;61391;50.922;6.928;2023-07-31T00:20:44;17.90;99.90
34698;DHT22;61391;50.922;6.928;2023-07-31T00:23:12;17.90;99.90
34698;DHT22;61391;50.922;6.928;2023-07-31T00:25:38;17.90;99.90
34698;DHT22;61391;50.922;6.928;2023-07-31T00:28:04;17.90;99.90
34698;DHT22;61391;50.922;6.928;2023-07-31T00:33:51;17.80;99.90
34698;DHT22;61391;50.922;6.928;2023-07-31T00:36:17;17.80;99.90
34698;DHT22;61391;50.922;6.928;2023-07-31T00:38:43;17.80;99.90
34698;DHT22;61391;50.922;6.928;2023-07-31T00:41:09;18.00;99.90
34698;DHT22;61391;50.922;6.928;2023-07-31T00:43:34;18.00;99.90
34698;DHT22;61391;50.922;6.928;2023-07-31T00:46:00;18.00;99.90
34698;DHT22;61391;50.922;6.928;2023-07-31T00:48:26;18.00;99.90
34698;DHT22;61391;50.922;6.928;2023-07-31T00:50:52;18.10;99.90
34698;DHT22;61391;50.922;6.928;2023-07-31T00:53:18;18.00;99.90
34698;DHT22;61391;50.922;6.928;2023-07-31T00:55:44;18.00;99.90
34698;DHT22;61391;50.922;6.928;2023-07-31T01:01:32;18.10;99.90
34698;DHT22;61391;50.922;6.928;2023-07-31T01:03:57;18.10;99.90
34698;DHT22;61391;50.922;6.928;2023-07-31T01:09:10;18.00;99.90
34698;DHT22;61391;50.922;6.928;2023-07-31T01:11:52;18.10;99.90
34698;DHT22;61391;50.922;6.928;2023-07-31T01:14:18;18.10;99.90
34698;DHT22;61391;50.922;6.928;2023-07-31T01:16:44;18.10;99.90
34698;DHT22;61391;50.922;6.928;2023-07-31T01:26:04;18.10;99.90
34698;DHT22;61391;50.922;6.928;2023-07-31T01:31:30;18.10;99.90
34698;DHT22;61391;50.922;6.928;2023-07-31T01:34:00;18.20;99.90
34698;DHT22;61391;50.922;6.928;2023-07-31T01:36:26;18.10;99.90
34698;DHT22;61391;50.922;6.928;2023-07-31T01:42:21;18.20;99.90
34698;DHT22;61391;50.922;6.928;2023-07-31T01:44:47;18.10;99.90
34698;DHT22;61391;50.922;6.928;2023-07-31T01:47:12;18.20;99.90
34698;DHT22;61391;50.922;6.928;2023-07-31T01:49:38;18.30;99.90
34698;DHT22;61391;50.922;6.928;2023-07-31T01:52:04;18.20;99.90
34698;DHT22;61391;50.922;6.928;2023-07-31T01:54:29;18.30;99.90
34698;DHT22;61391;50.922;6.928;2023-07-31T01:56:55;18.30;99.90
34698;DHT22;61391;50.922;6.928;2023-07-31T01:59:21;18.40;99.90
34698;DHT22;61391;50.922;6.928;2023-07-31T02:01:46;18.30;99.90
34698;DHT22;61391;50.922;6.928;2023-07-31T02:04:12;18.20;99.90
34698;DHT22;61391;50.922;6.928;2023-07-31T02:06:38;18.30;99.90
34698;DHT22;61391;50.922;6.928;2023-07-31T02:09:04;18.40;99.90
34698;DHT22;61391;50.922;6.928;2023-07-31T02:11:30;18.40;99.90
34698;DHT22;61391;50.922;6.928;2023-07-31T02:13:57;18.40;99.90
34698;DHT22;61391;50.922;6.928;2023-07-31T02:16:22;18.40;99.90
34698;DHT22;61391;50.922;6.928;2023-07-31T02:18:48;18.50;99.90
34698;DHT22;61391;50.922;6.928;2023-07-31T02:21:14;18.50;99.90
34698;DHT22;61391;50.922;6.928;2023-07-31T02:23:41;18.50;99.90
34698;DHT22;61391;50.922;6.928;2023-07-31T02:26:06;18.60;99.90
34698;DHT22;61391;50.922;6.928;2023-07-31T02:28:32;18.50;99.90
34698;DHT22;61391;50.922;6.928;2023-07-31T02:30:57;18.60;99.90
34698;DHT22;61391;50.922;6.928;2023-07-31T02:33:23;18.60;99.90
34698;DHT22;61391;50.922;6.928;2023-07-31T02:35:49;18.60;99.90
34698;DHT22;61391;50.922;6.928;2023-07-31T02:38:14;18.60;99.90
34698;DHT22;61391;50.922;6.928;2023-07-31T02:40:40;18.70;99.90
34698;DHT22;61391;50.922;6.928;2023-07-31T02:43:09;18.70;99.90
34698;DHT22;61391;50.922;6.928;2023-07-31T02:45:35;18.70;99.90
34698;DHT22;61391;50.922;6.928;2023-07-31T02:48:00;18.80;99.90
34698;DHT22;61391;50.922;6.928;2023-07-31T02:50:26;18.90;99.90
34698;DHT22;61391;50.922;6.928;2023-07-31T02:52:53;18.80;99.90
34698;DHT22;61391;50.922;6.928;2023-07-31T02:55:18;18.80;99.90
34698;DHT22;61391;50.922;6.928;2023-07-31T02:57:44;18.70;99.90
34698;DHT22;61391;50.922;6.928;2023-07-31T03:00:10;18.70;99.90
34698;DHT22;61391;50.922;6.928;2023-07-31T03:05:58;18.70;99.90
34698;DHT22;61391;50.922;6.928;2023-07-31T03:08:23;18.80;99.90
34698;DHT22;61391;50.922;6.928;2023-07-31T03:10:49;18.80;99.90
34698;DHT22;61391;50.922;6.928;2023-07-31T03:13:15;18.80;99.90
34698;DHT22;61391;50.922;6.928;2023-07-31T03:19:14;18.80;99.90
34698;DHT22;61391;50.922;6.928;2023-07-31T03:21:40;18.90;99.90
34698;DHT22;61391;50.922;6.928;2023-07-31T03:24:06;18.90;99.90
34698;DHT22;61391;50.922;6.928;2023-07-31T03:26:32;18.80;99.90
34698;DHT22;61391;50.922;6.928;2023-07-31T03:28:58;18.80;99.90
34698;DHT22;61391;50.922;6.928;2023-07-31T03:31:23;18.80;99.90
34698;DHT22;61391;50.922;6.928;2023-07-31T03:37:11;18.70;99.90
34698;DHT22;61391;50.922;6.928;2023-07-31T03:39:37;18.80;99.90
34698;DHT22;61391;50.922;6.928;2023-07-31T03:42:03;18.80;99.90
34698;DHT22;61391;50.922;6.928;2023-07-31T03:44:28;18.80;99.90
34698;DHT22;61391;50.922;6.928;2023-07-31T03:46:54;18.70;99.90
34698;DHT22;61391;50.922;6.928;2023-07-31T03:49:19;18.70;99.90
34698;DHT22;61391;50.922;6.928;2023-07-31T03:51:45;18.60;99.90
34698;DHT22;61391;50.922;6.928;2023-07-31T03:54:11;18.50;99.90
34698;DHT22;61391;50.922;6.928;2023-07-31T03:56:36;18.50;99.90
34698;DHT22;61391;50.922;6.928;2023-07-31T03:59:03;18.50;99.90
34698;DHT22;61391;50.922;6.928;2023-07-31T04:01:29;18.40;99.90
34698;DHT22;61391;50.922;6.928;2023-07-31T04:07:17;18.40;99.90
34698;DHT22;61391;50.922;6.928;2023-07-31T04:09:42;18.40;99.90
34698;DHT22;61391;50.922;6.928;2023-07-31T04:12:08;18.40;99.90
34698;DHT22;61391;50.922;6.928;2023-07-31T04:14:34;18.50;99.90
34698;DHT22;61391;50.922;6.928;2023-07-31T04:17:00;18.50;99.90
34698;DHT22;61391;50.922;6.928;2023-07-31T04:19:26;18.60;99.90
34698;DHT22;61391;50.922;6.928;2023-07-31T04:21:52;18.70;99.90
34698;DHT22;61391;50.922;6.928;2023-07-31T04:24:17;18.70;99.90
34698;DHT22;61391;50.922;6.928;2023-07-31T04:30:11;18.70;99.90
34698;DHT22;61391;50.922;6.928;2023-07-31T04:32:37;18.80;99.90
34698;DHT22;61391;50.922;6.928;2023-07-31T04:35:03;18.70;99.90
34698;DHT22;61391;50.922;6.928;2023-07-31T04:37:28;18.50;99.90
34698;DHT22;61391;50.922;6.928;2023-07-31T04:39:54;18.40;99.90
34698;DHT22;61391;50.922;6.928;2023-07-31T04:42:20;18.50;99.90
34698;DHT22;61391;50.922;6.928;2023-07-31T04:48:07;18.90;99.90
34698;DHT22;61391;50.922;6.928;2023-07-31T04:50:33;18.90;99.90
34698;DHT22;61391;50.922;6.928;2023-07-31T04:56:21;19.00;99.90
34698;DHT22;61391;50.922;6.928;2023-07-31T04:58:46;19.00;99.90
34698;DHT22;61391;50.922;6.928;2023-07-31T05:01:12;19.00;99.90
34698;DHT22;61391;50.922;6.928;2023-07-31T05:03:38;19.10;99.90
34698;DHT22;61391;50.922;6.928;2023-07-31T05:06:03;19.00;99.90
34698;DHT22;61391;50.922;6.928;2023-07-31T05:08:29;19.20;99.90
34698;DHT22;61391;50.922;6.928;2023-07-31T05:10:56;19.30;99.90
34698;DHT22;61391;50.922;6.928;2023-07-31T05:16:43;19.40;99.90
34698;DHT22;61391;50.922;6.928;2023-07-31T05:19:09;19.40;99.90
34698;DHT22;61391;50.922;6.928;2023-07-31T05:21:35;19.50;99.90
34698;DHT22;61391;50.922;6.928;2023-07-31T05:27:22;19.50;99.90
34698;DHT22;61391;50.922;6.928;2023-07-31T05:33:10;19.50;99.90
34698;DHT22;61391;50.922;6.928;2023-07-31T05:35:36;19.50;99.90
34698;DHT22;61391;50.922;6.928;2023-07-31T05:38:03;19.50;99.90
34698;DHT22;61391;50.922;6.928;2023-07-31T05:40:32;19.70;99.90
34698;DHT22;61391;50.922;6.928;2023-07-31T05:46:20;19.40;99.90
34698;DHT22;61391;50.922;6.928;2023-07-31T05:55:17;19.40;99.90
34698;DHT22;61391;50.922;6.928;2023-07-31T06:01:04;19.00;99.90
34698;DHT22;61391;50.922;6.928;2023-07-31T06:03:30;19.10;99.90
34698;DHT22;61391;50.922;6.928;2023-07-31T06:09:18;19.00;99.90
34698;DHT22;61391;50.922;6.928;2023-07-31T06:11:43;18.70;99.90
34698;DHT22;61391;50.922;6.928;2023-07-31T06:14:09;18.60;99.90
34698;DHT22;61391;50.922;6.928;2023-07-31T06:16:35;18.50;99.90
34698;DHT22;61391;50.922;6.928;2023-07-31T06:19:00;18.40;99.90
34698;DHT22;61391;50.922;6.928;2023-07-31T06:21:26;18.40;99.90
34698;DHT22;61391;50.922;6.928;2023-07-31T06:23:52;18.40;99.90
34698;DHT22;61391;50.922;6.928;2023-07-31T06:26:17;18.20;99.90
34698;DHT22;61391;50.922;6.928;2023-07-31T06:28:43;18.40;99.90
34698;DHT22;61391;50.922;6.928;2023-07-31T06:34:31;18.30;99.90
34698;DHT22;61391;50.922;6.928;2023-07-31T06:36:56;18.30;99.90
34698;DHT22;61391;50.922;6.928;2023-07-31T06:39:22;18.30;99.90
34698;DHT22;61391;50.922;6.928;2023-07-31T06:41:48;18.40;99.90
34698;DHT22;61391;50.922;6.928;2023-07-31T06:47:36;18.40;99.90
34698;DHT22;61391;50.922;6.928;2023-07-31T06:50:04;18.70;99.90
34698;DHT22;61391;50.922;6.928;2023-07-31T06:55:45;18.40;99.90
34698;DHT22;61391;50.922;6.928;2023-07-31T07:01:33;18.70;99.90
34698;DHT22;61391;50.922;6.928;2023-07-31T07:03:58;18.70;99.90
34698;DHT22;61391;50.922;6.928;2023-07-31T07:06:24;19.00;99.90
34698;DHT22;61391;50.922;6.928;2023-07-31T07:12:11;19.30;99.90
34698;DHT22;61391;50.922;6.928;2023-07-31T07:17:59;19.40;99.90
34698;DHT22;61391;50.922;6.928;2023-07-31T07:23:47;19.30;99.90
34698;DHT22;61391;50.922;6.928;2023-07-31T07:29:35;19.20;99.90
34698;DHT22;61391;50.922;6.928;2023-07-31T07:32:01;19.00;99.90
34698;DHT22;61391;50.922;6.928;2023-07-31T07:48:01;18.70;99.90
34698;DHT22;61391;50.922;6.928;2023-07-31T07:53:48;18.70;99.90
34698;DHT22;61391;50.922;6.928;2023-07-31T07:59:38;18.80;99.90
34698;DHT22;61391;50.922;6.928;2023-07-31T08:02:06;18.90;99.90
34698;DHT22;61391;50.922;6.928;2023-07-31T08:04:34;18.80;99.90
34698;DHT22;61391;50.922;6.928;2023-07-31T08:10:27;18.50;99.90
34698;DHT22;61391;50.922;6.928;2023-07-31T08:13:12;18.50;99.90
34698;DHT22;61391;50.922;6.928;2023-07-31T08:15:44;18.50;99.90
34698;DHT22;61391;50.922;6.928;2023-07-31T08:21:41;18.60;99.90
34698;DHT22;61391;50.922;6.928;2023-07-31T08:24:53;18.70;99.90
34698;DHT22;61391;50.922;6.928;2023-07-31T08:27:28;18.40;99.90
34698;DHT22;61391;50.922;6.928;2023-07-31T08:29:54;18.30;99.90
34698;DHT22;61391;50.922;6.928;2023-07-31T08:35:42;18.50;99.90
34698;DHT22;61391;50.922;6.928;2023-07-31T08:45:08;18.40;99.90
34698;DHT22;61391;50.922;6.928;2023-07-31T08:50:59;18.70;99.90
34698;DHT22;61391;50.922;6.928;2023-07-31T08:53:26;18.70;99.90
34698;DHT22;61391;50.922;6.928;2023-07-31T08:56:01;18.90;99.90
34698;DHT22;61391;50.922;6.928;2023-07-31T08:58:31;18.80;99.90
34698;DHT22;61391;50.922;6.928;2023-07-31T09:04:20;19.00;99.90
34698;DHT22;61391;50.922;6.928;2023-07-31T09:10:11;19.20;99.90
34698;DHT22;61391;50.922;6.928;2023-07-31T09:12:36;19.40;99.90
34698;DHT22;61391;50.922;6.928;2023-07-31T09:15:03;19.30;99.90
34698;DHT22;61391;50.922;6.928;2023-07-31T09:17:30;19.20;99.90
34698;DHT22;61391;50.922;6.928;2023-07-31T09:19:56;19.20;99.90
34698;DHT22;61391;50.922;6.928;2023-07-31T09:22:33;19.10;99.90
34698;DHT22;61391;50.922;6.928;2023-07-31T09:25:22;19.00;99.90
34698;DHT22;61391;50.922;6.928;2023-07-31T09:27:49;18.90;99.90
34698;DHT22;61391;50.922;6.928;2023-07-31T09:30:18;18.70;99.90
34698;DHT22;61391;50.922;6.928;2023-07-31T09:32:46;18.80;99.90
34698;DHT22;61391;50.922;6.928;2023-07-31T09:35:29;19.00;99.90
34698;DHT22;61391;50.922;6.928;2023-07-31T09:37:58;19.20;99.90
34698;DHT22;61391;50.922;6.928;2023-07-31T09:44:00;19.30;99.90
34698;DHT22;61391;50.922;6.928;2023-07-31T09:46:30;19.40;99.90
34698;DHT22;61391;50.922;6.928;2023-07-31T09:49:16;19.70;99.90
34698;DHT22;61391;50.922;6.928;2023-07-31T09:51:42;19.70;99.90
34698;DHT22;61391;50.922;6.928;2023-07-31T09:57:33;19.10;99.90
34698;DHT22;61391;50.922;6.928;2023-07-31T10:00:01;19.30;99.90
34698;DHT22;61391;50.922;6.928;2023-07-31T10:02:29;19.40;99.90
34698;DHT22;61391;50.922;6.928;2023-07-31T10:05:01;19.70;99.90
34698;DHT22;61391;50.922;6.928;2023-07-31T10:10:50;20.40;99.90
34698;DHT22;61391;50.922;6.928;2023-07-31T10:13:17;20.70;99.90
34698;DHT22;61391;50.922;6.928;2023-07-31T10:15:44;20.90;99.90
34698;DHT22;61391;50.922;6.928;2023-07-31T10:18:11;21.00;99.90
34698;DHT22;61391;50.922;6.928;2023-07-31T10:20:40;21.00;99.90
34698;DHT22;61391;50.922;6.928;2023-07-31T10:23:06;20.90;99.90
34698;DHT22;61391;50.922;6.928;2023-07-31T10:25:33;20.80;99.90
34698;DHT22;61391;50.922;6.928;2023-07-31T10:27:59;20.80;99.90
34698;DHT22;61391;50.922;6.928;2023-07-31T10:30:28;20.80;99.90
34698;DHT22;61391;50.922;6.928;2023-07-31T10:32:55;20.80;99.90
34698;DHT22;61391;50.922;6.928;2023-07-31T10:35:21;20.80;99.90
34698;DHT22;61391;50.922;6.928;2023-07-31T10:37:51;20.90;99.90
34698;DHT22;61391;50.922;6.928;2023-07-31T10:40:27;21.30;99.90
34698;DHT22;61391;50.922;6.928;2023-07-31T10:42:56;21.20;99.90
34698;DHT22;61391;50.922;6.928;2023-07-31T10:48:58;21.40;99.90
34698;DHT22;61391;50.922;6.928;2023-07-31T10:51:32;21.50;99.90
34698;DHT22;61391;50.922;6.928;2023-07-31T10:57:23;21.20;99.90
34698;DHT22;61391;50.922;6.928;2023-07-31T10:59:50;21.20;99.90
34698;DHT22;61391;50.922;6.928;2023-07-31T11:02:27;21.30;99.90
34698;DHT22;61391;50.922;6.928;2023-07-31T11:05:11;21.30;99.90
34698;DHT22;61391;50.922;6.928;2023-07-31T11:13:28;20.90;99.90
34698;DHT22;61391;50.922;6.928;2023-07-31T11:15:53;20.60;99.90
34698;DHT22;61391;50.922;6.928;2023-07-31T11:18:19;20.50;99.90
34698;DHT22;61391;50.922;6.928;2023-07-31T11:20:45;20.60;99.90
34698;DHT22;61391;50.922;6.928;2023-07-31T11:23:11;20.50;99.90
34698;DHT22;61391;50.922;6.928;2023-07-31T11:25:40;20.50;99.90
34698;DHT22;61391;50.922;6.928;2023-07-31T11:28:15;20.50;99.90
34698;DHT22;61391;50.922;6.928;2023-07-31T11:30:42;20.80;99.90
34698;DHT22;61391;50.922;6.928;2023-07-31T11:33:10;21.20;99.90
34698;DHT22;61391;50.922;6.928;2023-07-31T11:39:08;21.60;99.90
34698;DHT22;61391;50.922;6.928;2023-07-31T11:41:33;21.50;99.90
34698;DHT22;61391;50.922;6.928;2023-07-31T11:44:00;21.60;99.90
34698;DHT22;61391;50.922;6.928;2023-07-31T11:46:26;21.70;99.90
34698;DHT22;61391;50.922;6.928;2023-07-31T11:48:55;22.00;99.90
34698;DHT22;61391;50.922;6.928;2023-07-31T11:51:26;22.10;99.90
34698;DHT22;61391;50.922;6.928;2023-07-31T11:57:14;22.30;99.90
34698;DHT22;61391;50.922;6.928;2023-07-31T11:59:40;22.10;99.90
34698;DHT22;61391;50.922;6.928;2023-07-31T12:02:07;21.90;99.90
34698;DHT22;61391;50.922;6.928;2023-07-31T12:04:32;21.70;99.90
34698;DHT22;61391;50.922;6.928;2023-07-31T12:07:00;21.60;99.90
34698;DHT22;61391;50.922;6.928;2023-07-31T12:09:28;21.50;99.90
34698;DHT22;61391;50.922;6.928;2023-07-31T12:15:16;21.50;99.90
34698;DHT22;61391;50.922;6.928;2023-07-31T12:17:42;21.40;99.90
34698;DHT22;61391;50.922;6.928;2023-07-31T12:20:08;21.40;99.90
34698;DHT22;61391;50.922;6.928;2023-07-31T12:22:34;21.50;99.90
34698;DHT22;61391;50.922;6.928;2023-07-31T12:25:00;21.50;99.90
34698;DHT22;61391;50.922;6.928;2023-07-31T12:27:32;21.60;99.90
34698;DHT22;61391;50.922;6.928;2023-07-31T12:29:58;21.60;99.90
34698;DHT22;61391;50.922;6.928;2023-07-31T12:32:24;21.70;99.90
34698;DHT22;61391;50.922;6.928;2023-07-31T12:34:51;21.60;99.90
34698;DHT22;61391;50.922;6.928;2023-07-31T12:37:16;21.60;99.90
34698;DHT22;61391;50.922;6.928;2023-07-31T12:39:42;21.70;99.90
34698;DHT22;61391;50.922;6.928;2023-07-31T12:42:08;21.70;99.90
34698;DHT22;61391;50.922;6.928;2023-07-31T12:44:34;21.90;99.90
34698;DHT22;61391;50.922;6.928;2023-07-31T12:46:59;21.90;99.90
34698;DHT22;61391;50.922;6.928;2023-07-31T12:49:25;21.90;99.90
34698;DHT22;61391;50.922;6.928;2023-07-31T12:51:51;22.00;99.90
34698;DHT22;61391;50.922;6.928;2023-07-31T12:54:16;22.00;99.90
34698;DHT22;61391;50.922;6.928;2023-07-31T12:56:42;21.80;99.90
34698;DHT22;61391;50.922;6.928;2023-07-31T12:59:09;21.80;99.90
34698;DHT22;61391;50.922;6.928;2023-07-31T13:04:55;21.70;99.90
34698;DHT22;61391;50.922;6.928;2023-07-31T13:07:22;21.60;99.90
34698;DHT22;61391;50.922;6.928;2023-07-31T13:09:48;21.70;99.90
34698;DHT22;61391;50.922;6.928;2023-07-31T13:12:14;21.90;99.90
34698;DHT22;61391;50.922;6.928;2023-07-31T13:18:01;21.80;99.90
34698;DHT22;61391;50.922;6.928;2023-07-31T13:20:27;21.90;99.90
34698;DHT22;61391;50.922;6.928;2023-07-31T13:22:53;21.90;99.90
34698;DHT22;61391;50.922;6.928;2023-07-31T13:25:24;21.80;99.90
34698;DHT22;61391;50.922;6.928;2023-07-31T13:27:51;21.90;99.90
34698;DHT22;61391;50.922;6.928;2023-07-31T13:30:16;21.80;99.90
34698;DHT22;61391;50.922;6.928;2023-07-31T13:32:43;22.10;99.90
34698;DHT22;61391;50.922;6.928;2023-07-31T13:35:09;22.40;99.90
34698;DHT22;61391;50.922;6.928;2023-07-31T13:37:37;22.60;99.90
34698;DHT22;61391;50.922;6.928;2023-07-31T13:40:03;22.80;99.90
34698;DHT22;61391;50.922;6.928;2023-07-31T13:42:32;22.70;99.90
34698;DHT22;61391;50.922;6.928;2023-07-31T13:48:20;22.80;99.90
34698;DHT22;61391;50.922;6.928;2023-07-31T13:50:46;22.90;99.90
34698;DHT22;61391;50.922;6.928;2023-07-31T13:53:12;22.90;99.90
34698;DHT22;61391;50.922;6.928;2023-07-31T13:55:39;22.80;99.90
34698;DHT22;61391;50.922;6.928;2023-07-31T13:58:05;22.60;99.90
34698;DHT22;61391;50.922;6.928;2023-07-31T14:00:32;22.80;99.90
34698;DHT22;61391;50.922;6.928;2023-07-31T14:03:02;22.70;99.90
34698;DHT22;61391;50.922;6.928;2023-07-31T14:05:27;23.00;99.90
34698;DHT22;61391;50.922;6.928;2023-07-31T14:07:53;23.20;99.90
34698;DHT22;61391;50.922;6.928;2023-07-31T14:10:23;23.00;99.90
34698;DHT22;61391;50.922;6.928;2023-07-31T14:12:48;22.70;99.90
34698;DHT22;61391;50.922;6.928;2023-07-31T14:15:14;22.90;99.90
34698;DHT22;61391;50.922;6.928;2023-07-31T14:17:42;22.90;99.90
34698;DHT22;61391;50.922;6.928;2023-07-31T14:20:08;22.90;99.90
34698;DHT22;61391;50.922;6.928;2023-07-31T14:22:34;22.70;99.90
34698;DHT22;61391;50.922;6.928;2023-07-31T14:25:02;22.60;99.90
34698;DHT22;61391;50.922;6.928;2023-07-31T14:27:27;22.40;99.90
34698;DHT22;61391;50.922;6.928;2023-07-31T14:29:53;22.20;99.90
34698;DHT22;61391;50.922;6.928;2023-07-31T14:32:18;22.30;99.90
34698;DHT22;61391;50.922;6.928;2023-07-31T14:34:46;22.10;99.90
34698;DHT22;61391;50.922;6.928;2023-07-31T14:40:54;21.80;99.90
34698;DHT22;61391;50.922;6.928;2023-07-31T14:43:19;21.60;99.90
34698;DHT22;61391;50.922;6.928;2023-07-31T14:45:46;21.60;99.90
34698;DHT22;61391;50.922;6.928;2023-07-31T14:48:13;21.70;99.90
34698;DHT22;61391;50.922;6.928;2023-07-31T15:00:45;21.80;99.90
34698;DHT22;61391;50.922;6.928;2023-07-31T15:03:11;21.70;99.90
34698;DHT22;61391;50.922;6.928;2023-07-31T15:09:00;21.40;99.90
34698;DHT22;61391;50.922;6.928;2023-07-31T15:11:26;21.40;99.90
34698;DHT22;61391;50.922;6.928;2023-07-31T15:20:16;21.60;99.90
34698;DHT22;61391;50.922;6.928;2023-07-31T15:22:42;21.80;99.90
34698;DHT22;61391;50.922;6.928;2023-07-31T15:35:25;21.40;99.90
34698;DHT22;61391;50.922;6.928;2023-07-31T15:37:51;21.50;99.90
34698;DHT22;61391;50.922;6.928;2023-07-31T15:43:41;21.40;99.90
34698;DHT22;61391;50.922;6.928;2023-07-31T15:49:29;21.20;99.90
34698;DHT22;61391;50.922;6.928;2023-07-31T15:51:54;21.20;99.90
34698;DHT22;61391;50.922;6.928;2023-07-31T15:58:01;21.30;99.90
34698;DHT22;61391;50.922;6.928;2023-07-31T16:04:10;20.90;99.90
34698;DHT22;61391;50.922;6.928;2023-07-31T16:06:37;20.70;99.90
34698;DHT22;61391;50.922;6.928;2023-07-31T16:12:26;20.70;99.90
34698;DHT22;61391;50.922;6.928;2023-07-31T16:14:52;20.60;99.90
34698;DHT22;61391;50.922;6.928;2023-07-31T16:20:40;20.20;99.90
34698;DHT22;61391;50.922;6.928;2023-07-31T16:23:06;20.00;99.90
34698;DHT22;61391;50.922;6.928;2023-07-31T16:25:35;19.70;99.90
34698;DHT22;61391;50.922;6.928;2023-07-31T16:31:23;19.60;99.90
34698;DHT22;61391;50.922;6.928;2023-07-31T16:33:48;19.70;99.90
34698;DHT22;61391;50.922;6.928;2023-07-31T16:40:07;19.60;99.90
34698;DHT22;61391;50.922;6.928;2023-07-31T16:42:34;19.30;99.90
34698;DHT22;61391;50.922;6.928;2023-07-31T16:48:21;18.80;99.90
34698;DHT22;61391;50.922;6.928;2023-07-31T16:50:48;18.50;99.90
34698;DHT22;61391;50.922;6.928;2023-07-31T16:53:14;18.50;99.90
34698;DHT22;61391;50.922;6.928;2023-07-31T16:59:02;18.20;99.90
34698;DHT22;61391;50.922;6.928;2023-07-31T17:01:27;18.20;99.90
34698;DHT22;61391;50.922;6.928;2023-07-31T17:03:57;18.20;99.90
34698;DHT22;61391;50.922;6.928;2023-07-31T17:09:47;18.10;99.90
34698;DHT22;61391;50.922;6.928;2023-07-31T17:12:12;18.20;99.90
34698;DHT22;61391;50.922;6.928;2023-07-31T17:14:38;18.20;99.90
34698;DHT22;61391;50.922;6.928;2023-07-31T17:17:04;18.00;99.90
34698;DHT22;61391;50.922;6.928;2023-07-31T17:22:52;18.30;99.90
34698;DHT22;61391;50.922;6.928;2023-07-31T17:28:40;18.20;99.90
34698;DHT22;61391;50.922;6.928;2023-07-31T17:31:05;18.10;99.90
34698;DHT22;61391;50.922;6.928;2023-07-31T17:33:31;18.00;99.90
34698;DHT22;61391;50.922;6.928;2023-07-31T17:39:19;17.90;99.90
34698;DHT22;61391;50.922;6.928;2023-07-31T17:45:07;18.10;99.90
34698;DHT22;61391;50.922;6.928;2023-07-31T17:47:33;18.00;99.90
34698;DHT22;61391;50.922;6.928;2023-07-31T17:53:21;18.00;99.90
34698;DHT22;61391;50.922;6.928;2023-07-31T17:59:09;17.90;99.90
34698;DHT22;61391;50.922;6.928;2023-07-31T18:04:57;17.80;99.90
34698;DHT22;61391;50.922;6.928;2023-07-31T18:07:23;17.90;99.90
34698;DHT22;61391;50.922;6.928;2023-07-31T18:09:49;17.80;99.90
34698;DHT22;61391;50.922;6.928;2023-07-31T18:16:02;17.90;99.90
34698;DHT22;61391;50.922;6.928;2023-07-31T18:21:50;17.70;99.90
34698;DHT22;61391;50.922;6.928;2023-07-31T18:24:15;17.60;99.90
34698;DHT22;61391;50.922;6.928;2023-07-31T18:26:41;17.60;99.90
34698;DHT22;61391;50.922;6.928;2023-07-31T18:32:29;17.50;99.90
34698;DHT22;61391;50.922;6.928;2023-07-31T18:34:55;17.60;99.90
34698;DHT22;61391;50.922;6.928;2023-07-31T18:37:22;17.60;99.90
34698;DHT22;61391;50.922;6.928;2023-07-31T18:43:11;17.60;99.90
34698;DHT22;61391;50.922;6.928;2023-07-31T18:45:37;17.60;99.90
34698;DHT22;61391;50.922;6.928;2023-07-31T18:48:03;17.60;99.90
34698;DHT22;61391;50.922;6.928;2023-07-31T18:50:28;17.60;99.90
34698;DHT22;61391;50.922;6.928;2023-07-31T18:52:54;17.50;99.90
34698;DHT22;61391;50.922;6.928;2023-07-31T18:55:20;17.70;99.90
34698;DHT22;61391;50.922;6.928;2023-07-31T18:57:46;17.80;99.90
34698;DHT22;61391;50.922;6.928;2023-07-31T19:03:35;17.50;99.90
34698;DHT22;61391;50.922;6.928;2023-07-31T19:06:08;17.40;99.90
34698;DHT22;61391;50.922;6.928;2023-07-31T19:08:36;17.40;99.90
34698;DHT22;61391;50.922;6.928;2023-07-31T19:11:05;17.30;99.90
34698;DHT22;61391;50.922;6.928;2023-07-31T19:13:33;17.30;99.90
34698;DHT22;61391;50.922;6.928;2023-07-31T19:19:21;17.20;99.90
34698;DHT22;61391;50.922;6.928;2023-07-31T19:21:47;17.30;99.90
34698;DHT22;61391;50.922;6.928;2023-07-31T19:24:13;17.40;99.90
34698;DHT22;61391;50.922;6.928;2023-07-31T19:26:38;17.30;99.90
34698;DHT22;61391;50.922;6.928;2023-07-31T19:29:10;17.20;99.90
34698;DHT22;61391;50.922;6.928;2023-07-31T19:34:59;17.30;99.90
34698;DHT22;61391;50.922;6.928;2023-07-31T19:40:47;17.10;99.90
34698;DHT22;61391;50.922;6.928;2023-07-31T19:43:13;17.20;99.90
34698;DHT22;61391;50.922;6.928;2023-07-31T19:45:38;17.20;99.90
34698;DHT22;61391;50.922;6.928;2023-07-31T19:48:04;17.20;99.90
34698;DHT22;61391;50.922;6.928;2023-07-31T19:50:31;17.20;99.90
34698;DHT22;61391;50.922;6.928;2023-07-31T19:52:57;17.20;99.90
34698;DHT22;61391;50.922;6.928;2023-07-31T19:55:23;17.20;99.90
34698;DHT22;61391;50.922;6.928;2023-07-31T19:57:49;17.30;99.90
34698;DHT22;61391;50.922;6.928;2023-07-31T20:00:15;17.10;99.90
34698;DHT22;61391;50.922;6.928;2023-07-31T20:02:49;17.20;99.90
34698;DHT22;61391;50.922;6.928;2023-07-31T20:05:18;17.20;99.90
34698;DHT22;61391;50.922;6.928;2023-07-31T20:13:51;17.20;99.90
34698;DHT22;61391;50.922;6.928;2023-07-31T20:16:20;17.10;99.90
34698;DHT22;61391;50.922;6.928;2023-07-31T20:18:48;17.30;99.90
34698;DHT22;61391;50.922;6.928;2023-07-31T20:24:38;17.30;99.90
34698;DHT22;61391;50.922;6.928;2023-07-31T20:27:04;17.20;99.90
34698;DHT22;61391;50.922;6.928;2023-07-31T20:29:31;17.30;99.90
34698;DHT22;61391;50.922;6.928;2023-07-31T20:31:57;17.30;99.90
34698;DHT22;61391;50.922;6.928;2023-07-31T20:34:22;17.50;99.90
34698;DHT22;61391;50.922;6.928;2023-07-31T20:40:11;17.40;99.90
34698;DHT22;61391;50.922;6.928;2023-07-31T20:42:37;17.40;99.90
34698;DHT22;61391;50.922;6.928;2023-07-31T20:45:05;17.60;99.90
34698;DHT22;61391;50.922;6.928;2023-07-31T20:47:36;17.50;99.90
34698;DHT22;61391;50.922;6.928;2023-07-31T20:50:07;17.80;99.90
34698;DHT22;61391;50.922;6.928;2023-07-31T20:52:32;17.50;99.90
34698;DHT22;61391;50.922;6.928;2023-07-31T20:55:21;17.40;99.90
34698;DHT22;61391;50.922;6.928;2023-07-31T20:57:47;17.40;99.90
34698;DHT22;61391;50.922;6.928;2023-07-31T21:00:13;17.60;99.90